sensor_id;sensor_type;location;lat;lon;timestamp;temperature;humidity
63013;DHT22;62113;45.624;11.700;2023-11-19T00:01:51;10.20;56.60
63013;DHT22;62113;45.624;11.700;2023-11-19T00:04:17;10.10;56.50
63013;DHT22;62113;45.624;11.700;2023-11-19T00:06:42;10.10;56.30
63013;DHT22;62113;45.624;11.700;2023-11-19T00:09:08;10.20;56.30
63013;DHT22;62113;45.624;11.700;2023-11-19T00:11:33;10.10;56.40
63013;DHT22;62113;45.624;11.700;2023-11-19T00:13:59;10.10;56.40
63013;DHT22;62113;45.624;11.700;2023-11-19T00:16:24;10.10;56.40
63013;DHT22;62113;45.624;11.700;2023-11-19T00:18:50;10.10;56.40
63013;DHT22;62113;45.624;11.700;2023-11-19T00:21:15;10.10;56.30
63013;DHT22;62113;45.624;11.700;2023-11-19T00:23:41;10.10;56.30
63013;DHT22;62113;45.624;11.700;2023-11-19T00:26:06;10.10;56.50
63013;DHT22;62113;45.624;11.700;2023-11-19T00:28:32;10.10;56.90
63013;DHT22;62113;45.624;11.700;2023-11-19T00:30:58;10.00;57.00
63013;DHT22;62113;45.624;11.700;2023-11-19T00:33:24;10.00;57.00
63013;DHT22;62113;45.624;11.700;2023-11-19T00:35:49;10.00;57.10
63013;DHT22;62113;45.624;11.700;2023-11-19T00:38:15;10.00;57.20
63013;DHT22;62113;45.624;11.700;2023-11-19T00:40:41;10.00;57.20
63013;DHT22;62113;45.624;11.700;2023-11-19T00:43:07;10.00;56.90
63013;DHT22;62113;45.624;11.700;2023-11-19T00:45:32;10.00;57.00
63013;DHT22;62113;45.624;11.700;2023-11-19T00:47:58;10.10;57.30
63013;DHT22;62113;45.624;11.700;2023-11-19T00:50:27;10.10;56.90
63013;DHT22;62113;45.624;11.700;2023-11-19T00:52:52;10.10;56.90
63013;DHT22;62113;45.624;11.700;2023-11-19T00:55:18;10.10;57.00
63013;DHT22;62113;45.624;11.700;2023-11-19T00:57:43;10.00;56.90
63013;DHT22;62113;45.624;11.700;2023-11-19T01:00:09;10.00;56.90
63013;DHT22;62113;45.624;11.700;2023-11-19T01:02:44;10.00;57.20
63013;DHT22;62113;45.624;11.700;2023-11-19T01:05:10;10.00;57.50
63013;DHT22;62113;45.624;11.700;2023-11-19T01:07:39;10.00;57.30
63013;DHT22;62113;45.624;11.700;2023-11-19T01:10:05;10.00;57.50
63013;DHT22;62113;45.624;11.700;2023-11-19T01:12:30;9.90;57.60
63013;DHT22;62113;45.624;11.700;2023-11-19T01:14:56;10.00;57.70
63013;DHT22;62113;45.624;11.700;2023-11-19T01:17:23;9.90;57.70
63013;DHT22;62113;45.624;11.700;2023-11-19T01:19:48;9.90;57.50
63013;DHT22;62113;45.624;11.700;2023-11-19T01:22:15;9.90;57.90
63013;DHT22;62113;45.624;11.700;2023-11-19T01:24:41;9.90;57.60
63013;DHT22;62113;45.624;11.700;2023-11-19T01:27:06;9.90;57.70
63013;DHT22;62113;45.624;11.700;2023-11-19T01:29:31;10.00;57.90
63013;DHT22;62113;45.624;11.700;2023-11-19T01:31:57;10.00;58.00
63013;DHT22;62113;45.624;11.700;2023-11-19T01:34:22;10.10;58.30
63013;DHT22;62113;45.624;11.700;2023-11-19T01:36:48;10.10;58.40
63013;DHT22;62113;45.624;11.700;2023-11-19T01:39:14;10.10;58.50
63013;DHT22;62113;45.624;11.700;2023-11-19T01:41:41;10.10;58.60
63013;DHT22;62113;45.624;11.700;2023-11-19T01:44:07;10.20;58.50
63013;DHT22;62113;45.624;11.700;2023-11-19T01:46:32;10.20;58.20
63013;DHT22;62113;45.624;11.700;2023-11-19T01:48:59;10.20;58.00
63013;DHT22;62113;45.624;11.700;2023-11-19T01:51:24;10.20;58.10
63013;DHT22;62113;45.624;11.700;2023-11-19T01:53:50;10.20;57.90
63013;DHT22;62113;45.624;11.700;2023-11-19T01:56:15;10.20;58.10
63013;DHT22;62113;45.624;11.700;2023-11-19T01:58:42;10.20;58.30
63013;DHT22;62113;45.624;11.700;2023-11-19T02:01:08;10.10;58.50
63013;DHT22;62113;45.624;11.700;2023-11-19T02:03:34;10.20;57.90
63013;DHT22;62113;45.624;11.700;2023-11-19T02:06:00;10.20;57.80
63013;DHT22;62113;45.624;11.700;2023-11-19T02:08:26;10.20;57.80
63013;DHT22;62113;45.624;11.700;2023-11-19T02:10:52;10.20;58.20
63013;DHT22;62113;45.624;11.700;2023-11-19T02:13:20;10.20;58.10
63013;DHT22;62113;45.624;11.700;2023-11-19T02:15:46;10.20;57.90
63013;DHT22;62113;45.624;11.700;2023-11-19T02:20:44;10.20;58.50
63013;DHT22;62113;45.624;11.700;2023-11-19T02:23:09;10.20;58.60
63013;DHT22;62113;45.624;11.700;2023-11-19T02:25:35;10.20;58.10
63013;DHT22;62113;45.624;11.700;2023-11-19T02:28:02;10.20;58.10
63013;DHT22;62113;45.624;11.700;2023-11-19T02:30:28;10.20;58.10
63013;DHT22;62113;45.624;11.700;2023-11-19T02:32:57;10.20;58.00
63013;DHT22;62113;45.624;11.700;2023-11-19T02:35:27;10.20;57.80
63013;DHT22;62113;45.624;11.700;2023-11-19T02:37:54;10.20;57.60
63013;DHT22;62113;45.624;11.700;2023-11-19T02:40:19;10.20;57.80
63013;DHT22;62113;45.624;11.700;2023-11-19T02:42:45;10.20;58.00
63013;DHT22;62113;45.624;11.700;2023-11-19T02:45:10;10.10;58.20
63013;DHT22;62113;45.624;11.700;2023-11-19T02:47:40;10.00;58.40
63013;DHT22;62113;45.624;11.700;2023-11-19T02:50:06;10.00;58.50
63013;DHT22;62113;45.624;11.700;2023-11-19T02:52:39;10.00;58.10
63013;DHT22;62113;45.624;11.700;2023-11-19T02:55:04;10.00;58.10
63013;DHT22;62113;45.624;11.700;2023-11-19T02:57:34;10.00;58.30
63013;DHT22;62113;45.624;11.700;2023-11-19T03:00:00;10.00;58.30
63013;DHT22;62113;45.624;11.700;2023-11-19T03:02:26;9.90;58.50
63013;DHT22;62113;45.624;11.700;2023-11-19T03:04:59;9.90;58.80
63013;DHT22;62113;45.624;11.700;2023-11-19T03:07:25;9.90;58.50
63013;DHT22;62113;45.624;11.700;2023-11-19T03:09:50;9.90;58.80
63013;DHT22;62113;45.624;11.700;2023-11-19T03:12:16;9.80;58.60
63013;DHT22;62113;45.624;11.700;2023-11-19T03:14:41;9.80;58.70
63013;DHT22;62113;45.624;11.700;2023-11-19T03:17:07;9.80;58.70
63013;DHT22;62113;45.624;11.700;2023-11-19T03:19:35;9.80;58.80
63013;DHT22;62113;45.624;11.700;2023-11-19T03:22:01;9.80;58.90
63013;DHT22;62113;45.624;11.700;2023-11-19T03:24:27;9.70;58.90
63013;DHT22;62113;45.624;11.700;2023-11-19T03:26:52;9.70;58.90
63013;DHT22;62113;45.624;11.700;2023-11-19T03:29:18;9.70;58.70
63013;DHT22;62113;45.624;11.700;2023-11-19T03:31:43;9.70;58.70
63013;DHT22;62113;45.624;11.700;2023-11-19T03:34:10;9.70;58.50
63013;DHT22;62113;45.624;11.700;2023-11-19T03:36:35;9.70;58.60
63013;DHT22;62113;45.624;11.700;2023-11-19T03:39:01;9.70;58.70
63013;DHT22;62113;45.624;11.700;2023-11-19T03:41:26;9.70;58.70
63013;DHT22;62113;45.624;11.700;2023-11-19T03:43:52;9.70;58.90
63013;DHT22;62113;45.624;11.700;2023-11-19T03:46:21;9.70;59.00
63013;DHT22;62113;45.624;11.700;2023-11-19T03:48:50;9.60;58.80
63013;DHT22;62113;45.624;11.700;2023-11-19T03:51:16;9.60;58.60
63013;DHT22;62113;45.624;11.700;2023-11-19T03:53:42;9.60;58.60
63013;DHT22;62113;45.624;11.700;2023-11-19T03:56:07;9.60;58.70
63013;DHT22;62113;45.624;11.700;2023-11-19T03:58:34;9.60;58.80
63013;DHT22;62113;45.624;11.700;2023-11-19T04:01:01;9.60;58.80
63013;DHT22;62113;45.624;11.700;2023-11-19T04:03:26;9.60;59.20
63013;DHT22;62113;45.624;11.700;2023-11-19T04:05:52;9.40;59.20
63013;DHT22;62113;45.624;11.700;2023-11-19T04:08:17;9.40;58.90
63013;DHT22;62113;45.624;11.700;2023-11-19T04:10:43;9.40;58.80
63013;DHT22;62113;45.624;11.700;2023-11-19T04:13:08;9.30;59.00
63013;DHT22;62113;45.624;11.700;2023-11-19T04:15:34;9.40;59.10
63013;DHT22;62113;45.624;11.700;2023-11-19T04:17:59;9.40;59.20
63013;DHT22;62113;45.624;11.700;2023-11-19T04:20:25;9.30;59.20
63013;DHT22;62113;45.624;11.700;2023-11-19T04:22:51;9.30;59.60
63013;DHT22;62113;45.624;11.700;2023-11-19T04:25:16;9.30;59.00
63013;DHT22;62113;45.624;11.700;2023-11-19T04:27:44;9.30;59.20
63013;DHT22;62113;45.624;11.700;2023-11-19T04:30:10;9.30;59.30
63013;DHT22;62113;45.624;11.700;2023-11-19T04:32:36;9.30;59.20
63013;DHT22;62113;45.624;11.700;2023-11-19T04:35:02;9.20;59.30
63013;DHT22;62113;45.624;11.700;2023-11-19T04:37:27;9.20;59.10
63013;DHT22;62113;45.624;11.700;2023-11-19T04:39:52;9.20;59.30
63013;DHT22;62113;45.624;11.700;2023-11-19T04:42:18;9.20;59.00
63013;DHT22;62113;45.624;11.700;2023-11-19T04:44:45;9.20;59.10
63013;DHT22;62113;45.624;11.700;2023-11-19T04:47:10;9.20;59.20
63013;DHT22;62113;45.624;11.700;2023-11-19T04:49:42;9.20;59.20
63013;DHT22;62113;45.624;11.700;2023-11-19T04:52:08;9.20;59.10
63013;DHT22;62113;45.624;11.700;2023-11-19T04:54:33;9.20;59.20
63013;DHT22;62113;45.624;11.700;2023-11-19T04:56:59;9.20;59.40
63013;DHT22;62113;45.624;11.700;2023-11-19T04:59:24;9.20;59.20
63013;DHT22;62113;45.624;11.700;2023-11-19T05:01:50;9.20;59.00
63013;DHT22;62113;45.624;11.700;2023-11-19T05:04:16;9.20;59.20
63013;DHT22;62113;45.624;11.700;2023-11-19T05:06:45;9.20;59.20
63013;DHT22;62113;45.624;11.700;2023-11-19T05:09:11;9.20;59.20
63013;DHT22;62113;45.624;11.700;2023-11-19T05:11:38;9.10;59.30
63013;DHT22;62113;45.624;11.700;2023-11-19T05:14:04;9.10;59.20
63013;DHT22;62113;45.624;11.700;2023-11-19T05:16:30;9.10;59.70
63013;DHT22;62113;45.624;11.700;2023-11-19T05:18:56;9.10;59.40
63013;DHT22;62113;45.624;11.700;2023-11-19T05:21:21;9.00;59.60
63013;DHT22;62113;45.624;11.700;2023-11-19T05:23:47;9.00;59.50
63013;DHT22;62113;45.624;11.700;2023-11-19T05:26:19;9.00;59.70
63013;DHT22;62113;45.624;11.700;2023-11-19T05:28:45;9.10;59.10
63013;DHT22;62113;45.624;11.700;2023-11-19T05:31:10;9.10;59.40
63013;DHT22;62113;45.624;11.700;2023-11-19T05:33:36;9.00;59.50
63013;DHT22;62113;45.624;11.700;2023-11-19T05:36:02;9.00;59.60
63013;DHT22;62113;45.624;11.700;2023-11-19T05:38:29;9.00;59.30
63013;DHT22;62113;45.624;11.700;2023-11-19T05:40:54;9.00;59.30
63013;DHT22;62113;45.624;11.700;2023-11-19T05:43:20;9.00;59.40
63013;DHT22;62113;45.624;11.700;2023-11-19T05:45:46;9.00;59.30
63013;DHT22;62113;45.624;11.700;2023-11-19T05:48:12;9.00;59.40
63013;DHT22;62113;45.624;11.700;2023-11-19T05:50:38;8.90;59.40
63013;DHT22;62113;45.624;11.700;2023-11-19T05:53:04;9.00;59.20
63013;DHT22;62113;45.624;11.700;2023-11-19T05:55:33;9.00;59.10
63013;DHT22;62113;45.624;11.700;2023-11-19T05:57:59;8.90;59.10
63013;DHT22;62113;45.624;11.700;2023-11-19T06:00:25;8.90;58.80
63013;DHT22;62113;45.624;11.700;2023-11-19T06:02:51;8.90;58.80
63013;DHT22;62113;45.624;11.700;2023-11-19T06:05:17;8.80;59.00
63013;DHT22;62113;45.624;11.700;2023-11-19T06:07:43;8.80;59.20
63013;DHT22;62113;45.624;11.700;2023-11-19T06:10:09;8.80;58.90
63013;DHT22;62113;45.624;11.700;2023-11-19T06:12:35;8.80;59.20
63013;DHT22;62113;45.624;11.700;2023-11-19T06:15:06;8.70;59.50
63013;DHT22;62113;45.624;11.700;2023-11-19T06:17:33;8.80;59.30
63013;DHT22;62113;45.624;11.700;2023-11-19T06:19:59;8.80;59.20
63013;DHT22;62113;45.624;11.700;2023-11-19T06:22:24;8.80;59.60
63013;DHT22;62113;45.624;11.700;2023-11-19T06:24:50;8.80;59.40
63013;DHT22;62113;45.624;11.700;2023-11-19T06:27:15;8.80;59.30
63013;DHT22;62113;45.624;11.700;2023-11-19T06:29:41;8.90;59.30
63013;DHT22;62113;45.624;11.700;2023-11-19T06:32:06;8.90;59.30
63013;DHT22;62113;45.624;11.700;2023-11-19T06:34:33;8.90;59.20
63013;DHT22;62113;45.624;11.700;2023-11-19T06:36:59;9.00;59.00
63013;DHT22;62113;45.624;11.700;2023-11-19T06:39:24;9.00;58.80
63013;DHT22;62113;45.624;11.700;2023-11-19T06:41:50;9.10;58.70
63013;DHT22;62113;45.624;11.700;2023-11-19T06:44:16;9.00;58.80
63013;DHT22;62113;45.624;11.700;2023-11-19T06:46:41;9.10;58.70
63013;DHT22;62113;45.624;11.700;2023-11-19T06:49:07;9.10;58.70
63013;DHT22;62113;45.624;11.700;2023-11-19T06:51:35;9.10;58.90
63013;DHT22;62113;45.624;11.700;2023-11-19T06:54:00;9.10;58.70
63013;DHT22;62113;45.624;11.700;2023-11-19T06:56:26;9.20;58.70
63013;DHT22;62113;45.624;11.700;2023-11-19T06:58:52;9.20;58.80
63013;DHT22;62113;45.624;11.700;2023-11-19T07:01:17;9.20;58.80
63013;DHT22;62113;45.624;11.700;2023-11-19T07:03:46;9.20;58.70
63013;DHT22;62113;45.624;11.700;2023-11-19T07:06:12;9.20;58.80
63013;DHT22;62113;45.624;11.700;2023-11-19T07:08:38;9.30;58.80
63013;DHT22;62113;45.624;11.700;2023-11-19T07:11:04;9.30;58.50
63013;DHT22;62113;45.624;11.700;2023-11-19T07:13:29;9.40;58.80
63013;DHT22;62113;45.624;11.700;2023-11-19T07:15:56;9.40;59.00
63013;DHT22;62113;45.624;11.700;2023-11-19T07:18:21;9.50;59.10
63013;DHT22;62113;45.624;11.700;2023-11-19T07:20:49;9.60;59.00
63013;DHT22;62113;45.624;11.700;2023-11-19T07:23:15;9.80;59.10
63013;DHT22;62113;45.624;11.700;2023-11-19T07:25:44;10.00;59.20
63013;DHT22;62113;45.624;11.700;2023-11-19T07:28:13;10.20;59.30
63013;DHT22;62113;45.624;11.700;2023-11-19T07:30:39;10.40;59.30
63013;DHT22;62113;45.624;11.700;2023-11-19T07:33:05;10.50;59.20
63013;DHT22;62113;45.624;11.700;2023-11-19T07:35:31;10.70;59.10
63013;DHT22;62113;45.624;11.700;2023-11-19T07:37:57;10.80;58.70
63013;DHT22;62113;45.624;11.700;2023-11-19T07:40:23;11.00;58.70
63013;DHT22;62113;45.624;11.700;2023-11-19T07:42:48;11.10;58.60
63013;DHT22;62113;45.624;11.700;2023-11-19T07:45:14;11.20;58.40
63013;DHT22;62113;45.624;11.700;2023-11-19T07:47:39;11.40;58.20
63013;DHT22;62113;45.624;11.700;2023-11-19T07:50:05;11.60;57.90
63013;DHT22;62113;45.624;11.700;2023-11-19T07:52:31;11.70;58.00
63013;DHT22;62113;45.624;11.700;2023-11-19T07:54:56;11.90;57.80
63013;DHT22;62113;45.624;11.700;2023-11-19T07:57:22;12.00;57.30
63013;DHT22;62113;45.624;11.700;2023-11-19T07:59:49;12.20;57.00
63013;DHT22;62113;45.624;11.700;2023-11-19T08:02:14;12.30;57.30
63013;DHT22;62113;45.624;11.700;2023-11-19T08:04:40;12.40;57.00
63013;DHT22;62113;45.624;11.700;2023-11-19T08:07:10;12.60;56.10
63013;DHT22;62113;45.624;11.700;2023-11-19T08:09:36;12.70;55.60
63013;DHT22;62113;45.624;11.700;2023-11-19T08:12:03;12.80;55.40
63013;DHT22;62113;45.624;11.700;2023-11-19T08:14:28;13.00;55.20
63013;DHT22;62113;45.624;11.700;2023-11-19T08:16:54;13.00;56.00
63013;DHT22;62113;45.624;11.700;2023-11-19T08:19:19;13.20;55.70
63013;DHT22;62113;45.624;11.700;2023-11-19T08:21:45;13.30;55.10
63013;DHT22;62113;45.624;11.700;2023-11-19T08:24:10;13.40;54.40
63013;DHT22;62113;45.624;11.700;2023-11-19T08:26:36;13.40;53.40
63013;DHT22;62113;45.624;11.700;2023-11-19T08:29:01;13.50;53.30
63013;DHT22;62113;45.624;11.700;2023-11-19T08:31:27;13.60;53.90
63013;DHT22;62113;45.624;11.700;2023-11-19T08:33:52;13.60;53.30
63013;DHT22;62113;45.624;11.700;2023-11-19T08:36:18;13.70;52.40
63013;DHT22;62113;45.624;11.700;2023-11-19T08:38:44;13.70;52.70
63013;DHT22;62113;45.624;11.700;2023-11-19T08:41:10;13.70;52.90
63013;DHT22;62113;45.624;11.700;2023-11-19T08:43:35;13.70;51.90
63013;DHT22;62113;45.624;11.700;2023-11-19T08:46:01;13.80;52.30
63013;DHT22;62113;45.624;11.700;2023-11-19T08:48:26;13.80;51.90
63013;DHT22;62113;45.624;11.700;2023-11-19T08:50:52;13.90;52.40
63013;DHT22;62113;45.624;11.700;2023-11-19T08:53:17;14.00;52.00
63013;DHT22;62113;45.624;11.700;2023-11-19T08:55:43;14.10;51.50
63013;DHT22;62113;45.624;11.700;2023-11-19T08:58:08;14.20;51.50
63013;DHT22;62113;45.624;11.700;2023-11-19T09:00:34;14.20;51.20
63013;DHT22;62113;45.624;11.700;2023-11-19T09:02:59;14.30;51.70
63013;DHT22;62113;45.624;11.700;2023-11-19T09:05:25;14.40;50.80
63013;DHT22;62113;45.624;11.700;2023-11-19T09:07:50;14.50;51.20
63013;DHT22;62113;45.624;11.700;2023-11-19T09:10:16;14.60;51.10
63013;DHT22;62113;45.624;11.700;2023-11-19T09:12:41;14.70;49.30
63013;DHT22;62113;45.624;11.700;2023-11-19T09:15:07;14.80;48.50
63013;DHT22;62113;45.624;11.700;2023-11-19T09:17:32;15.00;46.30
63013;DHT22;62113;45.624;11.700;2023-11-19T09:19:58;15.20;45.20
63013;DHT22;62113;45.624;11.700;2023-11-19T09:22:24;15.30;45.90
63013;DHT22;62113;45.624;11.700;2023-11-19T09:24:49;15.40;44.10
63013;DHT22;62113;45.624;11.700;2023-11-19T09:27:15;15.50;44.30
63013;DHT22;62113;45.624;11.700;2023-11-19T09:29:41;15.70;44.20
63013;DHT22;62113;45.624;11.700;2023-11-19T09:32:06;15.80;44.10
63013;DHT22;62113;45.624;11.700;2023-11-19T09:34:32;16.00;46.10
63013;DHT22;62113;45.624;11.700;2023-11-19T09:36:58;16.00;42.80
63013;DHT22;62113;45.624;11.700;2023-11-19T09:39:23;16.10;43.00
63013;DHT22;62113;45.624;11.700;2023-11-19T09:41:51;16.20;43.10
63013;DHT22;62113;45.624;11.700;2023-11-19T09:44:16;16.20;43.40
63013;DHT22;62113;45.624;11.700;2023-11-19T09:46:43;16.30;44.50
63013;DHT22;62113;45.624;11.700;2023-11-19T09:49:09;16.40;44.80
63013;DHT22;62113;45.624;11.700;2023-11-19T09:51:35;16.50;42.80
63013;DHT22;62113;45.624;11.700;2023-11-19T09:54:01;16.60;41.80
63013;DHT22;62113;45.624;11.700;2023-11-19T09:56:27;16.70;41.40
63013;DHT22;62113;45.624;11.700;2023-11-19T09:58:55;16.70;40.40
63013;DHT22;62113;45.624;11.700;2023-11-19T10:01:20;16.90;40.90
63013;DHT22;62113;45.624;11.700;2023-11-19T10:03:46;17.00;42.70
63013;DHT22;62113;45.624;11.700;2023-11-19T10:06:12;17.00;42.00
63013;DHT22;62113;45.624;11.700;2023-11-19T10:08:41;17.10;40.50
63013;DHT22;62113;45.624;11.700;2023-11-19T10:11:08;17.20;41.40
63013;DHT22;62113;45.624;11.700;2023-11-19T10:13:36;17.30;42.00
63013;DHT22;62113;45.624;11.700;2023-11-19T10:16:08;17.20;40.20
63013;DHT22;62113;45.624;11.700;2023-11-19T10:18:34;17.10;40.60
63013;DHT22;62113;45.624;11.700;2023-11-19T10:21:06;17.10;42.50
63013;DHT22;62113;45.624;11.700;2023-11-19T10:23:47;17.10;41.10
63013;DHT22;62113;45.624;11.700;2023-11-19T10:26:12;17.10;41.60
63013;DHT22;62113;45.624;11.700;2023-11-19T10:28:41;17.10;42.60
63013;DHT22;62113;45.624;11.700;2023-11-19T10:31:14;17.20;42.40
63013;DHT22;62113;45.624;11.700;2023-11-19T10:33:40;17.20;42.00
63013;DHT22;62113;45.624;11.700;2023-11-19T10:36:06;17.20;41.50
63013;DHT22;62113;45.624;11.700;2023-11-19T10:38:32;17.20;41.80
63013;DHT22;62113;45.624;11.700;2023-11-19T10:40:57;17.30;42.10
63013;DHT22;62113;45.624;11.700;2023-11-19T10:43:23;17.40;41.70
63013;DHT22;62113;45.624;11.700;2023-11-19T10:45:49;17.50;41.70
63013;DHT22;62113;45.624;11.700;2023-11-19T10:48:14;17.50;41.50
63013;DHT22;62113;45.624;11.700;2023-11-19T10:50:41;17.50;38.90
63013;DHT22;62113;45.624;11.700;2023-11-19T10:53:07;17.50;40.60
63013;DHT22;62113;45.624;11.700;2023-11-19T10:55:34;17.60;39.90
63013;DHT22;62113;45.624;11.700;2023-11-19T11:03:05;17.80;39.70
63013;DHT22;62113;45.624;11.700;2023-11-19T11:05:33;17.80;38.40
63013;DHT22;62113;45.624;11.700;2023-11-19T11:08:00;17.80;38.90
63013;DHT22;62113;45.624;11.700;2023-11-19T11:10:25;17.70;38.40
63013;DHT22;62113;45.624;11.700;2023-11-19T11:12:51;17.70;38.10
63013;DHT22;62113;45.624;11.700;2023-11-19T11:15:21;17.70;38.00
63013;DHT22;62113;45.624;11.700;2023-11-19T11:17:47;17.50;36.30
63013;DHT22;62113;45.624;11.700;2023-11-19T11:20:13;17.30;36.80
63013;DHT22;62113;45.624;11.700;2023-11-19T11:22:55;17.00;35.40
63013;DHT22;62113;45.624;11.700;2023-11-19T11:25:31;16.90;36.90
63013;DHT22;62113;45.624;11.700;2023-11-19T11:28:09;16.90;38.50
63013;DHT22;62113;45.624;11.700;2023-11-19T11:30:46;16.90;38.30
63013;DHT22;62113;45.624;11.700;2023-11-19T11:33:21;17.00;38.40
63013;DHT22;62113;45.624;11.700;2023-11-19T11:38:21;17.20;39.30
63013;DHT22;62113;45.624;11.700;2023-11-19T11:41:14;17.30;38.70
63013;DHT22;62113;45.624;11.700;2023-11-19T11:43:45;17.30;38.70
63013;DHT22;62113;45.624;11.700;2023-11-19T11:49:05;17.40;36.00
63013;DHT22;62113;45.624;11.700;2023-11-19T11:57:00;17.80;39.30
63013;DHT22;62113;45.624;11.700;2023-11-19T11:59:27;18.00;39.70
63013;DHT22;62113;45.624;11.700;2023-11-19T12:01:57;18.10;38.60
63013;DHT22;62113;45.624;11.700;2023-11-19T12:04:25;18.20;38.10
63013;DHT22;62113;45.624;11.700;2023-11-19T12:07:06;18.20;37.90
63013;DHT22;62113;45.624;11.700;2023-11-19T12:09:33;18.20;38.50
63013;DHT22;62113;45.624;11.700;2023-11-19T12:17:56;17.80;37.70
63013;DHT22;62113;45.624;11.700;2023-11-19T12:20:16;17.70;37.20
63013;DHT22;62113;45.624;11.700;2023-11-19T12:22:42;17.60;36.60
63013;DHT22;62113;45.624;11.700;2023-11-19T12:25:09;17.50;37.80
63013;DHT22;62113;45.624;11.700;2023-11-19T12:27:35;17.50;38.30
63013;DHT22;62113;45.624;11.700;2023-11-19T12:30:01;17.40;38.30
63013;DHT22;62113;45.624;11.700;2023-11-19T12:32:42;17.40;37.50
63013;DHT22;62113;45.624;11.700;2023-11-19T12:35:08;17.40;38.40
63013;DHT22;62113;45.624;11.700;2023-11-19T12:37:40;17.40;35.90
63013;DHT22;62113;45.624;11.700;2023-11-19T12:40:15;17.40;37.00
63013;DHT22;62113;45.624;11.700;2023-11-19T12:42:44;17.40;37.70
63013;DHT22;62113;45.624;11.700;2023-11-19T12:45:10;17.30;38.00
63013;DHT22;62113;45.624;11.700;2023-11-19T12:47:36;17.40;38.40
63013;DHT22;62113;45.624;11.700;2023-11-19T12:50:02;17.40;37.70
63013;DHT22;62113;45.624;11.700;2023-11-19T12:52:29;17.50;38.70
63013;DHT22;62113;45.624;11.700;2023-11-19T12:54:55;17.40;38.80
63013;DHT22;62113;45.624;11.700;2023-11-19T12:57:20;17.40;39.10
63013;DHT22;62113;45.624;11.700;2023-11-19T12:59:55;17.30;39.20
63013;DHT22;62113;45.624;11.700;2023-11-19T13:02:22;17.30;38.70
63013;DHT22;62113;45.624;11.700;2023-11-19T13:04:48;17.20;39.40
63013;DHT22;62113;45.624;11.700;2023-11-19T13:07:15;17.20;39.90
63013;DHT22;62113;45.624;11.700;2023-11-19T13:09:45;17.20;39.70
63013;DHT22;62113;45.624;11.700;2023-11-19T13:12:14;17.20;39.10
63013;DHT22;62113;45.624;11.700;2023-11-19T13:14:40;17.10;38.40
63013;DHT22;62113;45.624;11.700;2023-11-19T13:17:07;17.00;38.40
63013;DHT22;62113;45.624;11.700;2023-11-19T13:19:33;17.00;39.80
63013;DHT22;62113;45.624;11.700;2023-11-19T13:22:00;17.00;40.30
63013;DHT22;62113;45.624;11.700;2023-11-19T13:24:25;17.10;40.30
63013;DHT22;62113;45.624;11.700;2023-11-19T13:26:51;17.10;40.20
63013;DHT22;62113;45.624;11.700;2023-11-19T13:29:16;17.10;40.20
63013;DHT22;62113;45.624;11.700;2023-11-19T13:31:42;17.10;40.40
63013;DHT22;62113;45.624;11.700;2023-11-19T13:34:07;17.10;40.30
63013;DHT22;62113;45.624;11.700;2023-11-19T13:36:33;17.00;40.20
63013;DHT22;62113;45.624;11.700;2023-11-19T13:38:59;17.00;40.20
63013;DHT22;62113;45.624;11.700;2023-11-19T13:41:25;17.00;39.70
63013;DHT22;62113;45.624;11.700;2023-11-19T13:43:51;16.90;38.90
63013;DHT22;62113;45.624;11.700;2023-11-19T13:46:16;16.80;40.30
63013;DHT22;62113;45.624;11.700;2023-11-19T13:48:42;16.70;39.40
63013;DHT22;62113;45.624;11.700;2023-11-19T13:51:07;16.70;40.00
63013;DHT22;62113;45.624;11.700;2023-11-19T13:53:35;16.60;40.90
63013;DHT22;62113;45.624;11.700;2023-11-19T13:56:01;16.60;40.60
63013;DHT22;62113;45.624;11.700;2023-11-19T13:58:27;16.50;40.60
63013;DHT22;62113;45.624;11.700;2023-11-19T14:00:52;16.50;40.40
63013;DHT22;62113;45.624;11.700;2023-11-19T14:03:18;16.50;40.60
63013;DHT22;62113;45.624;11.700;2023-11-19T14:05:43;16.50;41.00
63013;DHT22;62113;45.624;11.700;2023-11-19T14:08:09;16.40;41.00
63013;DHT22;62113;45.624;11.700;2023-11-19T14:10:37;16.40;40.20
63013;DHT22;62113;45.624;11.700;2023-11-19T14:13:04;16.40;40.70
63013;DHT22;62113;45.624;11.700;2023-11-19T14:15:30;16.30;40.40
63013;DHT22;62113;45.624;11.700;2023-11-19T14:17:55;16.30;40.60
63013;DHT22;62113;45.624;11.700;2023-11-19T14:20:21;16.30;39.70
63013;DHT22;62113;45.624;11.700;2023-11-19T14:22:46;16.30;39.90
63013;DHT22;62113;45.624;11.700;2023-11-19T14:25:16;16.30;41.50
63013;DHT22;62113;45.624;11.700;2023-11-19T14:27:42;16.30;41.30
63013;DHT22;62113;45.624;11.700;2023-11-19T14:30:08;16.30;41.30
63013;DHT22;62113;45.624;11.700;2023-11-19T14:32:36;16.30;41.20
63013;DHT22;62113;45.624;11.700;2023-11-19T14:35:02;16.30;41.30
63013;DHT22;62113;45.624;11.700;2023-11-19T14:37:29;16.30;41.30
63013;DHT22;62113;45.624;11.700;2023-11-19T14:39:55;16.30;41.40
63013;DHT22;62113;45.624;11.700;2023-11-19T14:42:20;16.30;41.20
63013;DHT22;62113;45.624;11.700;2023-11-19T14:44:46;16.30;40.80
63013;DHT22;62113;45.624;11.700;2023-11-19T14:47:11;16.20;40.80
63013;DHT22;62113;45.624;11.700;2023-11-19T14:49:37;16.20;40.90
63013;DHT22;62113;45.624;11.700;2023-11-19T14:52:05;16.20;41.20
63013;DHT22;62113;45.624;11.700;2023-11-19T14:54:30;16.10;41.50
63013;DHT22;62113;45.624;11.700;2023-11-19T14:56:56;16.10;41.50
63013;DHT22;62113;45.624;11.700;2023-11-19T14:59:22;16.10;41.60
63013;DHT22;62113;45.624;11.700;2023-11-19T15:01:47;16.00;41.90
63013;DHT22;62113;45.624;11.700;2023-11-19T15:04:13;16.00;42.00
63013;DHT22;62113;45.624;11.700;2023-11-19T15:06:38;16.00;42.30
63013;DHT22;62113;45.624;11.700;2023-11-19T15:09:04;16.00;42.80
63013;DHT22;62113;45.624;11.700;2023-11-19T15:11:30;16.00;42.90
63013;DHT22;62113;45.624;11.700;2023-11-19T15:13:56;15.90;43.10
63013;DHT22;62113;45.624;11.700;2023-11-19T15:16:21;15.90;43.30
63013;DHT22;62113;45.624;11.700;2023-11-19T15:18:57;15.90;43.60
63013;DHT22;62113;45.624;11.700;2023-11-19T15:21:27;15.90;44.10
63013;DHT22;62113;45.624;11.700;2023-11-19T15:23:54;15.80;43.60
63013;DHT22;62113;45.624;11.700;2023-11-19T15:26:20;15.70;44.30
63013;DHT22;62113;45.624;11.700;2023-11-19T15:28:46;15.70;45.20
63013;DHT22;62113;45.624;11.700;2023-11-19T15:31:11;15.70;44.30
63013;DHT22;62113;45.624;11.700;2023-11-19T15:33:38;15.70;44.60
63013;DHT22;62113;45.624;11.700;2023-11-19T15:36:05;15.50;45.10
63013;DHT22;62113;45.624;11.700;2023-11-19T15:38:33;15.50;45.10
63013;DHT22;62113;45.624;11.700;2023-11-19T15:40:58;15.40;45.60